createdAt,value
2019-03-19T00:02:12.975Z,2.73
2019-03-19T00:04:40.489Z,2.53
2019-03-19T00:07:08.212Z,2.70
2019-03-19T00:09:35.969Z,2.50
2019-03-19T00:12:03.219Z,2.50
2019-03-19T00:14:31.283Z,3.20
2019-03-19T00:16:59.210Z,4.13
2019-03-19T00:19:26.508Z,2.60
2019-03-19T00:21:54.369Z,2.83
2019-03-19T00:24:22.023Z,2.80
2019-03-19T00:26:50.039Z,2.50
2019-03-19T00:29:19.997Z,3.70
2019-03-19T00:31:47.643Z,2.80
2019-03-19T00:34:16.685Z,2.90
2019-03-19T00:36:44.102Z,2.93
2019-03-19T00:39:11.923Z,2.23
2019-03-19T00:41:39.504Z,2.80
2019-03-19T00:44:07.449Z,3.37
2019-03-19T00:46:35.429Z,3.53
2019-03-19T00:49:03.068Z,2.70
2019-03-19T00:51:30.503Z,2.93
2019-03-19T00:53:58.630Z,2.93
2019-03-19T00:56:26.301Z,2.73
2019-03-19T00:58:53.966Z,3.07
2019-03-19T01:01:21.737Z,3.23
2019-03-19T01:03:49.418Z,3.03
2019-03-19T01:06:17.123Z,3.13
2019-03-19T01:08:46.813Z,2.90
2019-03-19T01:11:14.548Z,2.87
2019-03-19T01:13:42.136Z,2.60
2019-03-19T01:16:10.104Z,3.73
2019-03-19T01:18:37.874Z,2.80
2019-03-19T01:21:07.159Z,3.73
2019-03-19T01:23:34.685Z,2.80
2019-03-19T01:26:02.105Z,3.30
2019-03-19T01:28:29.754Z,3.03
2019-03-19T01:30:58.540Z,3.77
2019-03-19T01:33:26.119Z,2.33
2019-03-19T01:35:53.856Z,3.17
2019-03-19T01:38:21.706Z,2.77
2019-03-19T01:40:51.910Z,3.13
2019-03-19T01:43:19.770Z,3.00
2019-03-19T01:45:47.320Z,2.63
2019-03-19T01:48:15.071Z,2.60
2019-03-19T01:50:42.664Z,3.63
2019-03-19T01:53:10.274Z,3.77
2019-03-19T01:55:38.067Z,2.87
2019-03-19T01:58:05.708Z,2.77
2019-03-19T02:00:33.274Z,2.60
2019-03-19T02:03:00.908Z,2.50
2019-03-19T02:05:28.350Z,2.80
2019-03-19T02:07:55.936Z,3.37
2019-03-19T02:10:23.530Z,2.80
2019-03-19T02:12:51.372Z,3.57
2019-03-19T02:15:19.136Z,3.83
2019-03-19T02:17:46.450Z,4.90
2019-03-19T02:20:15.845Z,2.67
2019-03-19T02:22:43.430Z,2.80
2019-03-19T02:25:11.021Z,3.20
2019-03-19T02:27:38.779Z,3.00
2019-03-19T02:30:07.659Z,2.87
2019-03-19T02:32:35.680Z,2.60
2019-03-19T02:35:03.604Z,3.23
2019-03-19T02:37:31.269Z,2.80
2019-03-19T02:39:59.111Z,3.10
2019-03-19T02:42:26.827Z,3.00
2019-03-19T02:44:54.302Z,2.93
2019-03-19T02:47:21.587Z,3.03
2019-03-19T02:49:49.386Z,2.90
2019-03-19T02:52:16.567Z,3.03
2019-03-19T02:54:44.660Z,3.57
2019-03-19T02:57:12.317Z,2.70
2019-03-19T02:59:39.898Z,2.70
2019-03-19T03:02:07.584Z,3.53
2019-03-19T03:04:35.299Z,2.90
2019-03-19T03:07:03.039Z,3.47
2019-03-19T03:09:30.522Z,2.57
2019-03-19T03:11:58.148Z,3.43
2019-03-19T03:14:25.599Z,3.23
2019-03-19T03:16:53.244Z,2.53
2019-03-19T03:19:20.468Z,2.73
2019-03-19T03:21:48.103Z,2.63
2019-03-19T03:24:15.469Z,2.87
2019-03-19T03:26:48.050Z,2.47
2019-03-19T03:29:12.333Z,2.20
2019-03-19T03:31:39.692Z,2.30
2019-03-19T03:34:07.291Z,2.57
2019-03-19T03:36:35.016Z,2.50
2019-03-19T03:39:04.145Z,2.60
2019-03-19T03:41:31.779Z,2.47
2019-03-19T03:43:59.781Z,2.60
2019-03-19T03:46:27.842Z,2.50
2019-03-19T03:48:55.074Z,2.37
2019-03-19T03:51:22.356Z,2.77
2019-03-19T03:53:49.992Z,2.23
2019-03-19T03:56:17.692Z,2.57
2019-03-19T03:58:59.598Z,2.73
2019-03-19T04:01:14.736Z,1.97
2019-03-19T04:03:42.300Z,3.00
2019-03-19T04:06:10.030Z,2.93
2019-03-19T04:08:37.879Z,2.00
2019-03-19T04:11:05.260Z,2.70
2019-03-19T04:13:33.008Z,1.83
2019-03-19T04:16:01.162Z,4.10
2019-03-19T04:18:28.915Z,2.50
2019-03-19T04:20:56.552Z,3.07
2019-03-19T04:23:24.310Z,2.97
2019-03-19T04:25:52.328Z,3.40
2019-03-19T04:28:20.270Z,2.73
2019-03-19T04:30:47.991Z,2.43
2019-03-19T04:33:15.900Z,2.23
2019-03-19T04:35:43.551Z,2.73
2019-03-19T04:38:11.303Z,2.97
2019-03-19T04:40:38.514Z,2.80
2019-03-19T04:43:05.806Z,3.10
2019-03-19T04:45:33.979Z,2.70
2019-03-19T04:48:03.627Z,2.67
2019-03-19T04:50:31.143Z,2.47
2019-03-19T04:52:58.745Z,2.87
2019-03-19T04:55:26.605Z,3.37
2019-03-19T04:57:54.242Z,2.87
2019-03-19T05:00:21.549Z,2.33
2019-03-19T05:02:48.975Z,2.87
2019-03-19T05:05:16.146Z,2.27
2019-03-19T05:07:43.833Z,2.97
2019-03-19T05:10:11.647Z,3.20
2019-03-19T05:12:38.872Z,3.10
2019-03-19T05:15:06.597Z,3.07
2019-03-19T05:17:33.935Z,2.97
2019-03-19T05:20:01.662Z,2.93
2019-03-19T05:22:30.411Z,3.27
2019-03-19T05:24:58.271Z,3.10
2019-03-19T05:27:25.965Z,3.10
2019-03-19T05:29:53.878Z,4.17
2019-03-19T05:32:21.905Z,3.90
2019-03-19T05:34:50.800Z,3.53
2019-03-19T05:37:18.390Z,4.03
2019-03-19T05:39:46.033Z,3.30
2019-03-19T05:42:14.180Z,3.10
2019-03-19T05:44:41.986Z,2.97
2019-03-19T05:47:10.063Z,4.27
2019-03-19T05:49:37.426Z,3.20
2019-03-19T05:52:05.333Z,3.27
2019-03-19T05:54:33.055Z,2.97
2019-03-19T05:57:01.110Z,3.03
2019-03-19T05:59:28.751Z,3.00
2019-03-19T06:01:56.423Z,3.40
2019-03-19T06:04:24.728Z,3.23
2019-03-19T06:06:52.822Z,3.13
2019-03-19T06:09:21.155Z,2.80
2019-03-19T06:11:49.029Z,3.60
2019-03-19T06:14:17.009Z,3.33
2019-03-19T06:16:44.888Z,3.47
2019-03-19T06:19:12.818Z,2.93
2019-03-19T06:21:40.449Z,3.37
2019-03-19T06:24:08.194Z,3.13
2019-03-19T06:26:37.127Z,3.13
2019-03-19T06:29:05.766Z,2.63
2019-03-19T06:31:33.824Z,2.33
2019-03-19T06:34:01.738Z,2.63
2019-03-19T06:36:29.703Z,2.60
2019-03-19T06:38:57.270Z,2.47
2019-03-19T06:41:25.344Z,2.63
2019-03-19T06:43:53.357Z,3.13
2019-03-19T06:46:21.394Z,3.43
2019-03-19T06:52:18.158Z,3.07
2019-03-19T06:54:46.006Z,3.83
2019-03-19T06:57:14.098Z,2.70
2019-03-19T06:59:41.975Z,3.17
2019-03-19T07:02:10.184Z,3.53
2019-03-19T07:04:38.031Z,2.90
2019-03-19T07:07:06.255Z,2.60
2019-03-19T07:09:33.979Z,2.83
2019-03-19T07:12:01.837Z,2.37
2019-03-19T07:14:29.408Z,2.53
2019-03-19T07:16:57.049Z,2.10
2019-03-19T07:19:25.277Z,2.43
2019-03-19T07:21:53.228Z,3.20
2019-03-19T07:24:21.181Z,2.43
2019-03-19T07:26:49.352Z,2.53
2019-03-19T07:29:18.153Z,2.73
2019-03-19T07:31:46.325Z,2.43
2019-03-19T07:34:13.821Z,2.57
2019-03-19T07:36:42.338Z,2.87
2019-03-19T07:39:10.367Z,2.63
2019-03-19T07:41:38.430Z,3.33
2019-03-19T07:44:17.535Z,2.90
2019-03-19T07:46:47.840Z,2.47
2019-03-19T07:49:18.517Z,2.90
2019-03-19T07:51:46.952Z,2.80
2019-03-19T07:54:14.840Z,2.67
2019-03-19T07:56:43.945Z,2.70
2019-03-19T07:59:13.047Z,2.60
2019-03-19T08:01:41.494Z,2.47
2019-03-19T08:04:10.142Z,3.10
2019-03-19T08:06:38.543Z,2.67
2019-03-19T08:09:07.851Z,2.63
2019-03-19T08:11:35.908Z,2.40
2019-03-19T08:14:03.676Z,2.63
2019-03-19T08:16:32.062Z,2.53
2019-03-19T08:19:05.523Z,2.87
2019-03-19T08:21:34.093Z,3.37
2019-03-19T08:24:02.644Z,3.13
2019-03-19T08:26:30.594Z,3.00
2019-03-19T08:28:58.678Z,3.43
2019-03-19T08:31:26.590Z,2.50
2019-03-19T08:34:03.374Z,2.73
2019-03-19T08:36:38.176Z,2.90
2019-03-19T08:39:12.161Z,3.83
2019-03-19T08:41:40.240Z,2.70
2019-03-19T08:44:09.002Z,2.97
2019-03-19T08:46:37.677Z,2.53
2019-03-19T08:49:12.028Z,3.13
2019-03-19T08:51:40.396Z,2.30
2019-03-19T08:54:12.200Z,2.63
2019-03-19T08:56:40.303Z,3.63
2019-03-19T08:59:09.208Z,2.93
2019-03-19T09:01:37.276Z,3.20
2019-03-19T09:04:05.115Z,3.57
2019-03-19T09:06:33.077Z,3.43
2019-03-19T09:09:01.454Z,2.90
2019-03-19T09:11:36.615Z,2.90
2019-03-19T09:14:04.693Z,2.90
2019-03-19T09:16:33.331Z,2.57
2019-03-19T09:19:01.304Z,2.33
2019-03-19T09:21:29.886Z,2.30
2019-03-19T09:23:59.462Z,2.27
2019-03-19T09:26:28.198Z,2.00
2019-03-19T09:28:55.959Z,1.63
2019-03-19T09:31:25.871Z,2.30
2019-03-19T09:33:53.622Z,2.30
2019-03-19T09:36:25.660Z,3.20
2019-03-19T09:38:53.941Z,2.57
2019-03-19T09:41:21.899Z,2.27
2019-03-19T09:43:49.827Z,2.30
2019-03-19T09:46:20.938Z,2.23
2019-03-19T09:48:48.784Z,2.33
2019-03-19T09:51:16.797Z,2.23
2019-03-19T09:53:53.126Z,1.97
2019-03-19T09:56:21.279Z,1.80
2019-03-19T09:58:49.114Z,1.80
2019-03-19T10:01:18.740Z,2.17
2019-03-19T10:03:51.504Z,2.00
2019-03-19T10:06:20.485Z,2.00
2019-03-19T10:08:58.503Z,1.93
2019-03-19T10:11:26.661Z,1.70
2019-03-19T10:13:56.089Z,2.30
2019-03-19T10:16:24.143Z,1.50
2019-03-19T10:18:59.269Z,1.67
2019-03-19T10:21:36.866Z,2.23
2019-03-19T10:24:04.951Z,1.70
2019-03-19T10:26:39.372Z,1.70
2019-03-19T10:29:03.706Z,2.13
2019-03-19T10:31:32.254Z,2.13
2019-03-19T10:34:00.627Z,1.90
2019-03-19T10:36:33.358Z,1.70
2019-03-19T10:39:02.443Z,2.10
2019-03-19T10:41:51.460Z,1.67
2019-03-19T10:44:27.135Z,1.90
2019-03-19T10:46:55.788Z,2.03
2019-03-19T10:49:39.637Z,1.63
2019-03-19T10:55:16.094Z,2.03
2019-03-19T10:57:47.247Z,2.33
2019-03-19T11:00:33.095Z,1.80
2019-03-19T11:03:05.667Z,1.80
2019-03-19T11:05:43.005Z,1.73
2019-03-19T11:08:24.974Z,1.70
2019-03-19T11:11:06.563Z,2.27
2019-03-19T11:13:35.058Z,2.07
2019-03-19T11:16:19.211Z,2.20
2019-03-19T11:18:58.199Z,2.13
2019-03-19T11:21:26.415Z,2.23
2019-03-19T11:24:12.226Z,2.00
2019-03-19T11:26:51.976Z,1.70
2019-03-19T11:29:23.660Z,1.87
2019-03-19T11:31:54.925Z,1.50
2019-03-19T11:34:24.075Z,1.97
2019-03-19T11:36:57.738Z,1.73
2019-03-19T11:39:28.805Z,2.10
2019-03-19T11:42:15.177Z,1.80
2019-03-19T11:45:15.957Z,2.87
2019-03-19T11:48:03.260Z,2.00
2019-03-19T12:01:16.368Z,2.00
2019-03-19T12:03:45.394Z,2.47
2019-03-19T12:06:25.128Z,1.90
2019-03-19T12:12:56.557Z,2.07
2019-03-19T12:15:25.580Z,2.27
2019-03-19T12:17:59.769Z,1.87
2019-03-19T12:20:31.880Z,2.30
2019-03-19T12:23:12.764Z,2.37
2019-03-19T12:25:41.659Z,1.57
2019-03-19T12:31:03.776Z,1.77
2019-03-19T12:33:43.112Z,2.10
2019-03-19T12:36:17.251Z,1.87
2019-03-19T12:38:54.454Z,1.50
2019-03-19T12:41:36.556Z,2.10
2019-03-19T12:44:14.605Z,1.40
2019-03-19T12:46:48.021Z,1.67
2019-03-19T12:49:23.905Z,1.47
2019-03-19T12:52:06.060Z,1.60
2019-03-19T12:54:32.214Z,1.70
2019-03-19T12:57:00.769Z,1.77
2019-03-19T12:59:38.650Z,2.90
2019-03-19T13:02:04.611Z,1.77
2019-03-19T13:04:34.976Z,1.47
2019-03-19T13:07:34.466Z,1.60
2019-03-19T13:13:13.998Z,1.57
2019-03-19T13:15:42.903Z,2.13
2019-03-19T13:18:13.748Z,1.97
2019-03-19T13:21:02.076Z,2.20
2019-03-19T13:23:30.286Z,1.60
2019-03-19T13:26:00.967Z,1.40
2019-03-19T13:28:36.355Z,2.27
2019-03-19T13:31:08.452Z,1.90
2019-03-19T13:33:45.247Z,1.93
2019-03-19T13:36:13.072Z,1.90
2019-03-19T13:38:47.941Z,1.50
2019-03-19T13:41:16.463Z,2.53
2019-03-19T13:43:44.924Z,1.67
2019-03-19T13:46:13.221Z,1.83
2019-03-19T13:48:45.663Z,2.23
2019-03-19T13:51:14.506Z,1.53
2019-03-19T13:53:54.637Z,1.80
2019-03-19T13:56:22.671Z,1.33
2019-03-19T13:59:06.491Z,1.60
2019-03-19T14:01:40.468Z,1.70
2019-03-19T14:04:48.991Z,1.63
2019-03-19T14:07:23.116Z,2.07
2019-03-19T14:09:58.865Z,1.57
2019-03-19T14:12:27.137Z,1.97
2019-03-19T14:18:17.615Z,1.47
2019-03-19T14:20:54.509Z,2.00
2019-03-19T14:23:36.120Z,1.97
2019-03-19T14:26:04.734Z,2.50
2019-03-19T14:29:03.837Z,1.77
2019-03-19T14:31:11.177Z,2.13
2019-03-19T14:33:43.982Z,1.90
2019-03-19T14:36:12.526Z,1.53
2019-03-19T14:42:29.533Z,1.73
2019-03-19T14:45:04.921Z,2.13
2019-03-19T14:47:33.545Z,1.47
2019-03-19T14:50:09.187Z,1.57
2019-03-19T14:52:40.620Z,1.60
2019-03-19T14:55:23.885Z,1.87
2019-03-19T14:57:52.050Z,1.53
2019-03-19T15:00:23.251Z,1.93
2019-03-19T15:02:50.966Z,2.67
2019-03-19T15:05:19.443Z,2.20
2019-03-19T15:07:55.373Z,1.83
2019-03-19T15:10:24.604Z,2.23
2019-03-19T15:12:57.348Z,1.43
2019-03-19T15:15:41.301Z,2.00
2019-03-19T15:18:15.538Z,1.97
2019-03-19T15:20:44.494Z,1.80
2019-03-19T15:23:13.235Z,2.00
2019-03-19T15:25:46.778Z,1.87
2019-03-19T15:28:17.098Z,2.13
2019-03-19T15:30:51.413Z,1.80
2019-03-19T15:33:19.577Z,2.73
2019-03-19T15:41:46.364Z,2.13
2019-03-19T15:44:14.250Z,1.73
2019-03-19T15:47:13.441Z,1.57
2019-03-19T15:49:42.825Z,1.93
2019-03-19T15:52:23.131Z,2.47
2019-03-19T15:54:51.701Z,1.73
2019-03-19T15:57:20.869Z,2.03
2019-03-19T16:00:08.119Z,1.93
2019-03-19T16:05:40.938Z,1.70
2019-03-19T16:08:10.056Z,1.97
2019-03-19T16:20:38.358Z,1.80
2019-03-19T16:23:10.627Z,1.90
2019-03-19T16:25:39.470Z,2.40
2019-03-19T16:28:07.817Z,2.23
2019-03-19T16:30:35.838Z,1.63
2019-03-19T16:33:12.310Z,1.57
2019-03-19T16:35:43.431Z,2.40
2019-03-19T16:38:23.270Z,2.53
2019-03-19T16:48:11.201Z,1.90
2019-03-19T16:50:44.904Z,1.80
2019-03-19T16:53:12.937Z,1.90
2019-03-19T16:56:02.346Z,2.00
2019-03-19T16:58:39.521Z,2.10
2019-03-19T17:01:20.259Z,1.80
2019-03-19T17:03:51.595Z,1.70
2019-03-19T17:06:25.156Z,1.67
2019-03-19T17:08:53.762Z,2.27
2019-03-19T17:11:21.882Z,1.70
2019-03-19T17:13:50.197Z,2.20
2019-03-19T17:16:21.356Z,2.90
2019-03-19T17:18:59.082Z,2.47
2019-03-19T17:31:00.597Z,2.53
2019-03-19T17:33:30.627Z,2.13
2019-03-19T17:35:58.943Z,2.40
2019-03-19T17:38:29.950Z,2.27
2019-03-19T17:40:57.826Z,2.30
2019-03-19T17:43:28.303Z,2.27
2019-03-19T17:45:58.160Z,2.57
2019-03-19T17:48:28.227Z,2.93
2019-03-19T17:51:06.224Z,2.37
2019-03-19T17:53:34.958Z,2.67
2019-03-19T17:56:03.942Z,3.17
2019-03-19T17:58:42.127Z,3.50
2019-03-19T18:01:17.332Z,3.13
2019-03-19T18:03:44.253Z,3.93
2019-03-19T18:06:14.861Z,4.13
2019-03-19T18:08:45.475Z,3.67
2019-03-19T18:11:28.693Z,3.13
2019-03-19T18:13:58.630Z,2.83
2019-03-19T18:16:33.321Z,2.60
2019-03-19T18:19:07.666Z,2.77
2019-03-19T18:21:36.491Z,3.37
2019-03-19T18:24:19.930Z,5.07
2019-03-19T18:27:01.229Z,3.63
2019-03-19T18:29:31.823Z,4.77
2019-03-19T18:32:20.314Z,5.20
2019-03-19T18:35:08.380Z,4.90
2019-03-19T18:37:49.870Z,2.90
2019-03-19T18:40:16.794Z,2.57
2019-03-19T18:42:57.014Z,2.10
2019-03-19T20:05:42.146Z,1.80
2019-03-19T20:08:42.713Z,1.00
2019-03-19T20:11:24.108Z,1.50
2019-03-19T20:14:26.821Z,1.80
2019-03-19T20:16:55.412Z,1.47
2019-03-19T20:19:48.905Z,1.10
2019-03-19T20:25:26.947Z,1.50
2019-03-19T20:28:40.926Z,1.70
2019-03-19T20:31:39.428Z,2.27
2019-03-19T20:34:08.249Z,2.20
2019-03-19T20:36:46.207Z,1.90
2019-03-19T20:39:14.815Z,1.63
2019-03-19T20:45:07.355Z,2.47
2019-03-19T20:53:56.698Z,1.50
2019-03-19T20:56:25.013Z,1.97
2019-03-19T20:58:54.447Z,1.63
2019-03-19T21:01:24.845Z,2.07
2019-03-19T21:03:55.307Z,1.47
2019-03-19T21:06:24.341Z,1.80
2019-03-19T21:08:53.977Z,2.50
2019-03-19T21:11:24.882Z,2.03
2019-03-19T21:13:53.642Z,2.80
2019-03-19T21:16:24.931Z,2.00
2019-03-19T21:18:53.578Z,2.20
2019-03-19T21:21:22.220Z,2.00
2019-03-19T21:23:52.342Z,2.33
2019-03-19T21:26:22.700Z,1.90
2019-03-19T21:28:56.121Z,1.70
2019-03-19T21:31:24.903Z,2.40
2019-03-19T21:34:00.582Z,2.00
2019-03-19T21:39:30.959Z,2.10
2019-03-19T21:42:10.253Z,2.50
2019-03-19T21:44:47.092Z,2.90
2019-03-19T21:47:35.315Z,3.60
2019-03-19T21:53:04.186Z,3.67
2019-03-19T21:58:44.654Z,5.30
2019-03-19T22:02:05.559Z,4.77
2019-03-19T22:08:06.494Z,5.17
2019-03-19T22:13:33.345Z,4.30
2019-03-19T22:16:07.185Z,3.23
2019-03-19T22:18:40.072Z,3.10
2019-03-19T22:21:08.084Z,3.13
2019-03-19T22:23:36.142Z,2.50
2019-03-19T22:26:04.503Z,2.87
2019-03-19T22:28:36.442Z,2.83
2019-03-19T22:31:04.728Z,2.13
2019-03-19T22:33:33.548Z,2.33
2019-03-19T22:36:03.526Z,2.30
2019-03-19T22:38:31.433Z,2.37
2019-03-19T22:40:59.199Z,2.43
2019-03-19T22:43:27.894Z,2.17
2019-03-19T22:46:04.173Z,2.50
2019-03-19T22:48:31.976Z,2.40
2019-03-19T22:51:04.817Z,2.63
2019-03-19T22:53:31.457Z,2.30
2019-03-19T22:55:59.797Z,2.97
2019-03-19T22:58:29.421Z,1.80
2019-03-19T23:01:04.460Z,1.93
2019-03-19T23:03:32.853Z,2.90
2019-03-19T23:06:01.616Z,2.83
2019-03-19T23:08:50.978Z,2.40
2019-03-19T23:12:04.933Z,2.40
2019-03-19T23:14:33.787Z,2.80
2019-03-19T23:17:05.735Z,3.40
2019-03-19T23:19:33.413Z,3.10
2019-03-19T23:22:10.751Z,3.00
2019-03-19T23:24:39.351Z,3.67
2019-03-19T23:27:09.909Z,3.10
2019-03-19T23:29:38.009Z,3.10
2019-03-19T23:32:06.243Z,2.97
2019-03-19T23:34:38.553Z,3.00
2019-03-19T23:37:04.806Z,3.60
2019-03-19T23:39:33.040Z,3.87
2019-03-19T23:42:06.463Z,3.47
2019-03-19T23:44:34.978Z,3.23
2019-03-19T23:47:08.496Z,4.03
2019-03-19T23:49:38.482Z,3.07
2019-03-19T23:52:10.235Z,3.40
2019-03-19T23:54:38.462Z,4.87
2019-03-19T23:57:06.511Z,4.07
2019-03-19T23:59:34.501Z,4.43
